Time;durP1;ratioP1;P1;durP2;ratioP2;P2;SDS_P1;SDS_P2;PMS_P1;PMS_P2;Temp;Humidity;BMP_temperature;BMP_pressure;BME280_temperature;BME280_humidity;BME280_pressure;Samples;Min_cycle;Max_cycle;Signal;HPM_P1;HPM_P2
2022/08/28 00:00:30;;;;;;;13.70;6.50;;;;;;;18.24;87.65;97534.55;108816;1282;22684;-88
2022/08/28 00:03:08;;;;;;;8.60;5.80;;;;;;;18.18;87.70;97534.91;109206;1282;22581;-88
2022/08/28 00:05:38;;;;;;;7.70;6.20;;;;;;;18.15;87.75;97534.39;109061;1281;22631;-87
2022/08/28 00:08:09;;;;;;;12.10;6.40;;;;;;;18.14;87.94;97535.60;109056;1282;22947;-85
2022/08/28 00:10:38;;;;;;;12.00;6.10;;;;;;;18.13;87.94;97534.96;109035;1282;22176;-86
2022/08/28 00:13:17;;;;;;;12.10;5.90;;;;;;;18.14;88.16;97532.33;108902;1281;22609;-85
2022/08/28 00:19:29;;;;;;;15.10;5.70;;;;;;;18.11;88.21;97528.84;109039;1282;22657;-87
2022/08/28 00:21:59;;;;;;;8.80;5.90;;;;;;;18.10;88.22;97530.69;106709;1282;23680;-87
2022/08/28 00:24:27;;;;;;;11.80;6.60;;;;;;;18.10;88.51;97533.56;105615;1284;25449;-87
2022/08/28 00:29:45;;;;;;;11.50;6.10;;;;;;;18.00;90.11;97531.33;105682;1284;25541;-88
2022/08/28 00:32:13;;;;;;;14.10;6.50;;;;;;;17.93;90.14;97527.19;105729;1284;25633;-87
2022/08/28 00:34:41;;;;;;;12.90;6.50;;;;;;;17.89;89.76;97526.65;105814;1283;22808;-87
2022/08/28 00:37:10;;;;;;;14.90;6.50;;;;;;;17.83;89.48;97523.40;105850;1283;25361;-88
2022/08/28 00:39:38;;;;;;;9.30;6.40;;;;;;;17.78;89.60;97520.23;105804;1283;22567;-87
2022/08/28 00:42:07;;;;;;;15.10;6.60;;;;;;;17.78;89.60;97520.09;105827;1283;25345;-86
2022/08/28 00:44:35;;;;;;;12.20;6.40;;;;;;;17.76;89.61;97515.89;105811;1283;22650;-88
2022/08/28 00:47:03;;;;;;;12.50;6.20;;;;;;;17.75;89.94;97512.38;105891;1284;22877;-87
2022/08/28 00:49:36;;;;;;;12.00;7.10;;;;;;;17.71;90.29;97511.88;105915;1282;24218;-90
2022/08/28 00:52:08;;;;;;;9.70;6.80;;;;;;;17.68;90.62;97508.23;105891;1284;22560;-90
2022/08/28 00:54:50;;;;;;;13.70;7.20;;;;;;;17.65;91.30;97504.13;105915;1283;22486;-88
2022/08/28 00:57:35;;;;;;;11.70;6.40;;;;;;;17.61;91.23;97503.41;105862;1283;22582;-88
2022/08/28 01:00:10;;;;;;;18.10;6.60;;;;;;;17.59;91.34;97501.41;105804;1282;22695;-88
2022/08/28 01:02:39;;;;;;;11.20;6.60;;;;;;;17.57;91.39;97499.41;105727;1283;25395;-88
2022/08/28 01:05:08;;;;;;;14.00;6.50;;;;;;;17.54;91.45;97501.61;105441;1284;23771;-87
2022/08/28 01:07:37;;;;;;;11.50;6.50;;;;;;;17.53;91.38;97496.07;105421;1283;25249;-87
2022/08/28 01:10:11;;;;;;;15.80;7.00;;;;;;;17.54;91.64;97498.27;105657;1284;25478;-87
2022/08/28 01:12:39;;;;;;;13.50;6.90;;;;;;;17.52;92.21;97496.73;105630;1283;22857;-89
2022/08/28 01:15:12;;;;;;;13.60;7.00;;;;;;;17.48;92.79;97495.01;105628;1284;25525;-86
2022/08/28 01:17:46;;;;;;;13.90;6.50;;;;;;;17.44;92.70;97497.27;105618;1284;22591;-90
2022/08/28 01:20:19;;;;;;;14.00;7.90;;;;;;;17.43;92.74;97496.14;105620;1284;24294;-88
2022/08/28 01:23:06;;;;;;;10.20;6.40;;;;;;;17.45;92.49;97503.58;105590;1282;22702;-87
2022/08/28 01:25:36;;;;;;;13.20;7.10;;;;;;;17.50;92.41;97507.59;105600;1283;25369;-87
2022/08/28 01:28:11;;;;;;;12.80;6.90;;;;;;;17.57;92.39;97511.42;105542;1284;22695;-88
2022/08/28 01:30:43;;;;;;;14.40;7.30;;;;;;;17.63;92.11;97510.00;105601;1284;24394;-88
2022/08/28 01:33:14;;;;;;;12.70;7.20;;;;;;;17.67;92.15;97511.19;105617;1284;25245;-87
2022/08/28 01:35:46;;;;;;;16.10;7.50;;;;;;;17.69;91.97;97506.31;105444;1284;22712;-87
2022/08/28 01:38:16;;;;;;;16.90;8.10;;;;;;;17.67;92.06;97506.84;105776;1282;24111;-87
2022/08/28 01:40:51;;;;;;;15.20;7.60;;;;;;;17.67;91.89;97512.03;105319;1284;22723;-87
2022/08/28 01:43:22;;;;;;;12.70;7.50;;;;;;;17.64;91.98;97509.88;105565;1283;25487;-88
2022/08/28 01:46:01;;;;;;;13.20;6.70;;;;;;;17.62;92.04;97511.75;105559;1284;23136;-88
2022/08/28 01:48:33;;;;;;;11.00;7.10;;;;;;;17.60;92.44;97514.11;105434;1283;22669;-86
2022/08/28 01:51:03;;;;;;;16.00;6.60;;;;;;;17.56;92.35;97517.86;105579;1283;22568;-86
2022/08/28 01:53:32;;;;;;;16.10;6.80;;;;;;;17.57;92.29;97522.84;105633;1283;22576;-88
2022/08/28 01:56:03;;;;;;;13.20;6.80;;;;;;;17.56;92.50;97521.42;105561;1282;22540;-88
2022/08/28 01:58:31;;;;;;;11.60;7.20;;;;;;;17.55;93.10;97523.98;105449;1282;22706;-87
2022/08/28 02:01:10;;;;;;;13.70;8.60;;;;;;;17.53;92.87;97525.19;105527;1282;25431;-88
2022/08/28 02:03:39;;;;;;;17.60;7.30;;;;;;;17.52;92.93;97524.60;105549;1283;22752;-86
2022/08/28 02:06:07;;;;;;;11.20;7.30;;;;;;;17.55;93.35;97523.66;105369;1284;22725;-87
2022/08/28 02:08:35;;;;;;;17.60;7.90;;;;;;;17.56;93.23;97529.20;105641;1283;22616;-87
2022/08/28 02:11:06;;;;;;;12.50;7.70;;;;;;;17.57;93.05;97535.54;105367;1284;22682;-86
2022/08/28 02:13:36;;;;;;;15.90;8.00;;;;;;;17.56;93.01;97540.26;105654;1282;24412;-87
2022/08/28 02:16:07;;;;;;;15.20;7.70;;;;;;;17.54;93.07;97540.23;105602;1282;24682;-87
2022/08/28 02:18:36;;;;;;;11.70;7.30;;;;;;;17.57;92.94;97534.46;105457;1284;22728;-86
2022/08/28 02:21:06;;;;;;;13.50;7.10;;;;;;;17.62;93.02;97525.93;105641;1282;22617;-87
2022/08/28 02:23:37;;;;;;;13.90;7.00;;;;;;;17.64;92.90;97531.35;105533;1282;25455;-88
2022/08/28 02:26:06;;;;;;;13.80;7.20;;;;;;;17.68;92.94;97530.44;105643;1283;25248;-87
2022/08/28 02:28:35;;;;;;;13.40;6.80;;;;;;;17.70;92.99;97531.57;105634;1283;22549;-87
2022/08/28 02:31:07;;;;;;;11.30;7.00;;;;;;;17.67;93.43;97530.72;105491;1282;22609;-88
2022/08/28 02:33:40;;;;;;;12.20;7.50;;;;;;;17.60;93.66;97530.23;105600;1283;22862;-86
2022/08/28 02:36:11;;;;;;;11.10;7.50;;;;;;;17.54;94.00;97535.70;105634;1283;22797;-87
2022/08/28 02:38:40;;;;;;;12.50;7.10;;;;;;;17.48;93.82;97533.08;105593;1282;22667;-86
2022/08/28 02:41:09;;;;;;;13.20;7.10;;;;;;;17.46;93.67;97537.46;105332;1283;22751;-87
2022/08/28 02:43:38;;;;;;;13.10;7.20;;;;;;;17.46;94.02;97535.34;105559;1283;22613;-87
2022/08/28 02:46:06;;;;;;;11.10;6.60;;;;;;;17.45;93.73;97537.52;105796;1283;22638;-87
2022/08/28 02:48:36;;;;;;;14.30;7.40;;;;;;;17.44;93.78;97534.61;105554;1283;22686;-88
2022/08/28 02:51:09;;;;;;;13.20;7.30;;;;;;;17.41;94.15;97527.77;105596;1283;22743;-87
2022/08/28 02:53:37;;;;;;;15.50;8.10;;;;;;;17.41;94.31;97538.04;105579;1283;25368;-87
2022/08/28 02:56:06;;;;;;;12.80;7.80;;;;;;;17.35;94.85;97536.81;105627;1283;23081;-88
2022/08/28 02:58:35;;;;;;;24.30;8.40;;;;;;;17.31;95.16;97531.41;105441;1282;22713;-88
2022/08/28 03:01:06;;;;;;;16.60;7.50;;;;;;;17.27;95.24;97534.67;105596;1282;22704;-87
2022/08/28 03:03:34;;;;;;;14.80;7.80;;;;;;;17.23;95.19;97538.36;105643;1283;22702;-86
2022/08/28 03:06:05;;;;;;;29.70;8.00;;;;;;;17.18;95.65;97534.67;105422;1284;22782;-86
2022/08/28 03:08:33;;;;;;;11.70;7.30;;;;;;;17.14;95.73;97540.40;105566;1282;24231;-88
2022/08/28 03:11:01;;;;;;;12.40;8.10;;;;;;;17.09;95.76;97538.65;105560;1283;22558;-88
2022/08/28 03:13:29;;;;;;;12.70;7.40;;;;;;;17.09;95.58;97536.30;105582;1283;26628;-88
2022/08/28 03:15:58;;;;;;;15.60;8.10;;;;;;;17.08;95.56;97532.25;105785;1282;25360;-88
2022/08/28 03:18:29;;;;;;;13.80;7.70;;;;;;;17.09;95.46;97531.73;105611;1283;25520;-88
2022/08/28 03:20:57;;;;;;;16.30;8.00;;;;;;;17.08;95.29;97526.26;105620;1282;25561;-87
2022/08/28 03:23:26;;;;;;;13.40;7.60;;;;;;;17.05;95.61;97529.05;105371;1283;22691;-87
2022/08/28 03:26:07;;;;;;;12.50;7.40;;;;;;;17.02;96.02;97522.84;105588;1282;26625;-88
2022/08/28 03:28:42;;;;;;;13.40;8.40;;;;;;;16.97;96.22;97520.14;105592;1282;22868;-86
2022/08/28 03:31:14;;;;;;;14.80;9.20;;;;;;;16.95;96.95;97521.48;105487;1283;26537;-87
2022/08/28 03:33:43;;;;;;;14.10;8.30;;;;;;;16.91;96.76;97520.93;105596;1282;22682;-89
2022/08/28 03:36:16;;;;;;;16.20;9.40;;;;;;;16.88;96.67;97525.98;105555;1282;23066;-88
2022/08/28 03:38:44;;;;;;;12.20;8.70;;;;;;;16.87;96.69;97522.52;105585;1282;24371;-89
2022/08/28 03:41:16;;;;;;;18.20;8.90;;;;;;;16.87;96.64;97527.97;105578;1282;22571;-87
2022/08/28 03:43:44;;;;;;;12.90;9.10;;;;;;;16.86;96.63;97531.52;105666;1282;22569;-87
2022/08/28 03:46:20;;;;;;;14.00;9.80;;;;;;;16.84;97.33;97528.33;105642;1282;23978;-88
2022/08/28 03:48:49;;;;;;;13.00;9.50;;;;;;;16.81;96.88;97536.52;105581;1282;22587;-88
2022/08/28 03:51:21;;;;;;;18.70;10.40;;;;;;;16.81;96.78;97545.92;105612;1282;25368;-89
2022/08/28 03:53:58;;;;;;;19.00;9.60;;;;;;;16.84;96.80;97547.25;105559;1282;25511;-87
2022/08/28 03:56:28;;;;;;;15.20;10.30;;;;;;;16.88;97.04;97547.10;105555;1282;22826;-88
2022/08/28 03:59:00;;;;;;;14.00;11.50;;;;;;;16.89;97.19;97549.77;105536;1282;22543;-87
2022/08/28 04:01:28;;;;;;;13.80;11.10;;;;;;;16.89;97.23;97558.49;105620;1282;24346;-89
2022/08/28 04:03:56;;;;;;;15.60;11.40;;;;;;;16.90;96.99;97574.39;105603;1282;24388;-87
2022/08/28 04:06:24;;;;;;;16.50;12.00;;;;;;;16.92;97.01;97577.64;105582;1282;26491;-87
2022/08/28 04:08:52;;;;;;;22.00;11.70;;;;;;;16.99;97.13;97580.23;105622;1282;24437;-88
2022/08/28 04:11:21;;;;;;;15.20;11.20;;;;;;;17.05;96.92;97586.46;105613;1282;22723;-87
2022/08/28 04:13:49;;;;;;;23.60;11.00;;;;;;;17.11;96.99;97587.69;105588;1282;25240;-87
2022/08/28 04:16:18;;;;;;;14.30;10.60;;;;;;;17.18;96.97;97583.70;105634;1282;22716;-87
2022/08/28 04:18:48;;;;;;;14.70;11.70;;;;;;;17.23;97.10;97586.63;105642;1282;22612;-86
2022/08/28 04:21:19;;;;;;;17.00;12.20;;;;;;;17.27;96.88;97586.39;105641;1282;25422;-87
2022/08/28 04:23:47;;;;;;;18.40;10.70;;;;;;;17.26;97.10;97588.70;105621;1282;22563;-88
2022/08/28 04:26:19;;;;;;;14.70;10.40;;;;;;;17.27;97.18;97590.90;105605;1282;22707;-87
2022/08/28 04:28:48;;;;;;;14.40;12.10;;;;;;;17.25;97.35;97591.80;105455;1283;22543;-88
2022/08/28 04:31:19;;;;;;;16.20;12.60;;;;;;;17.26;97.77;97590.88;105396;1283;25249;-86
2022/08/28 04:34:01;;;;;;;18.40;12.50;;;;;;;17.28;97.57;97595.59;105534;1282;22570;-86
2022/08/28 04:36:29;;;;;;;15.20;11.50;;;;;;;17.33;97.74;97594.48;105337;1282;25236;-86
2022/08/28 04:38:58;;;;;;;20.30;11.70;;;;;;;17.41;97.59;97598.41;105501;1283;25369;-87
2022/08/28 04:41:27;;;;;;;14.60;10.90;;;;;;;17.47;97.50;97598.17;105618;1283;22872;-86
2022/08/28 04:43:56;;;;;;;17.30;11.50;;;;;;;17.57;97.65;97603.48;105589;1282;25402;-87
2022/08/28 04:46:24;;;;;;;12.80;11.30;;;;;;;17.67;97.60;97606.14;105621;1282;25422;-86
2022/08/28 04:48:54;;;;;;;21.50;10.90;;;;;;;17.78;97.69;97606.89;105580;1282;22769;-89
2022/08/28 04:51:22;;;;;;;15.30;10.70;;;;;;;17.88;97.68;97610.51;105636;1282;23946;-88
2022/08/28 04:53:49;;;;;;;13.00;11.60;;;;;;;17.98;97.69;97605.20;105705;1282;25494;-89
2022/08/28 04:56:17;;;;;;;16.40;12.20;;;;;;;18.08;97.75;97598.57;105617;1282;22830;-88
2022/08/28 04:58:46;;;;;;;14.60;12.30;;;;;;;18.14;97.67;97595.06;105641;1283;22832;-88
2022/08/28 05:01:18;;;;;;;18.10;13.50;;;;;;;18.20;97.86;97592.60;105687;1282;22548;-88
2022/08/28 05:03:51;;;;;;;16.50;12.30;;;;;;;18.29;97.71;97593.82;105727;1282;25545;-88
2022/08/28 05:06:20;;;;;;;14.60;12.40;;;;;;;18.40;97.55;97590.06;105684;1282;22700;-87
2022/08/28 05:08:49;;;;;;;13.20;11.90;;;;;;;18.47;97.51;97589.12;105637;1282;22700;-87
2022/08/28 05:11:20;;;;;;;16.50;13.10;;;;;;;18.55;97.48;97586.18;106044;1282;22731;-89
2022/08/28 05:14:11;;;;;;;20.20;13.90;;;;;;;18.62;97.42;97577.50;105631;1282;24089;-86
2022/08/28 05:16:49;;;;;;;14.30;12.60;;;;;;;18.66;97.35;97578.06;105648;1282;24323;-87
2022/08/28 05:19:19;;;;;;;21.10;13.60;;;;;;;18.75;97.41;97579.59;105399;1282;24504;-86
2022/08/28 05:21:47;;;;;;;18.50;13.80;;;;;;;18.82;97.17;97583.08;105388;1282;24444;-86
2022/08/28 05:24:15;;;;;;;16.80;15.10;;;;;;;18.87;97.28;97585.27;105613;1282;24218;-87
2022/08/28 05:26:44;;;;;;;21.80;16.30;;;;;;;18.90;97.35;97585.86;105601;1282;22604;-87
2022/08/28 05:29:15;;;;;;;18.20;16.20;;;;;;;18.93;97.44;97579.85;105473;1282;25249;-88
2022/08/28 05:31:44;;;;;;;22.90;17.60;;;;;;;18.95;97.24;97577.63;105572;1282;24255;-88
2022/08/28 05:34:14;;;;;;;19.50;17.70;;;;;;;18.99;97.19;97586.66;105641;1282;24323;-88
2022/08/28 05:36:42;;;;;;;18.70;16.40;;;;;;;19.03;97.12;97580.76;105579;1283;22793;-88
2022/08/28 05:39:12;;;;;;;23.50;16.90;;;;;;;19.06;97.04;97577.13;105639;1282;25397;-88
2022/08/28 05:41:43;;;;;;;21.00;18.90;;;;;;;19.09;97.01;97575.45;105531;1282;25715;-87
2022/08/28 05:44:14;;;;;;;21.50;17.20;;;;;;;19.09;97.01;97572.73;105590;1282;22553;-88
2022/08/28 05:46:45;;;;;;;24.00;19.60;;;;;;;19.14;96.90;97577.59;105700;1282;22557;-87
2022/08/28 05:49:14;;;;;;;22.10;19.70;;;;;;;19.23;97.01;97576.96;105659;1282;22543;-89
2022/08/28 05:51:42;;;;;;;23.30;20.80;;;;;;;19.35;96.93;97577.02;105459;1283;23394;-88
2022/08/28 05:54:11;;;;;;;21.90;18.30;;;;;;;19.44;96.58;97573.52;105608;1282;23117;-86
2022/08/28 05:56:40;;;;;;;23.90;20.90;;;;;;;19.50;96.62;97575.01;105589;1282;24205;-88
2022/08/28 05:59:09;;;;;;;23.10;20.80;;;;;;;19.57;96.10;97572.54;105652;1282;22697;-86
2022/08/28 06:01:41;;;;;;;23.40;20.20;;;;;;;19.64;95.88;97573.14;105725;1282;22806;-86
2022/08/28 06:04:13;;;;;;;23.30;17.10;;;;;;;19.73;96.03;97573.22;105405;1282;25234;-87
2022/08/28 06:06:41;;;;;;;21.20;18.90;;;;;;;19.87;96.02;97572.09;105670;1282;22561;-86
2022/08/28 06:09:24;;;;;;;18.10;16.30;;;;;;;19.98;95.73;97572.89;105718;1282;22559;-86
2022/08/28 06:11:58;;;;;;;19.40;14.10;;;;;;;20.08;95.36;97574.13;105675;1282;23443;-87
2022/08/28 06:14:26;;;;;;;16.90;13.90;;;;;;;20.11;94.82;97573.63;105697;1282;24004;-87
2022/08/28 06:16:55;;;;;;;17.20;13.20;;;;;;;20.22;94.97;97578.38;105712;1282;24255;-87
2022/08/28 06:19:25;;;;;;;19.20;13.50;;;;;;;20.31;94.50;97579.22;105691;1282;22557;-88
2022/08/28 06:21:56;;;;;;;16.20;12.60;;;;;;;20.39;94.44;97581.35;105649;1282;24305;-87
2022/08/28 06:24:26;;;;;;;15.00;13.10;;;;;;;20.51;94.73;97579.09;105515;1283;25379;-87
2022/08/28 06:26:55;;;;;;;15.00;12.60;;;;;;;20.62;94.30;97581.98;105655;1282;23980;-86
2022/08/28 06:29:27;;;;;;;18.50;12.90;;;;;;;20.69;94.26;97580.11;105688;1282;22563;-89
2022/08/28 06:31:59;;;;;;;14.90;12.40;;;;;;;20.75;93.83;97576.19;105949;1282;22553;-87
2022/08/28 06:34:28;;;;;;;13.60;12.20;;;;;;;20.79;93.24;97576.00;105676;1282;22606;-87
2022/08/28 06:36:56;;;;;;;14.10;12.60;;;;;;;20.90;93.77;97570.80;105642;1282;25386;-88
2022/08/28 06:39:24;;;;;;;15.80;13.40;;;;;;;21.03;93.42;97570.00;105364;1282;24428;-86
2022/08/28 06:41:52;;;;;;;16.50;12.80;;;;;;;21.13;93.49;97566.43;105661;1282;25430;-87
2022/08/28 06:44:21;;;;;;;16.80;13.10;;;;;;;21.27;93.40;97569.38;105393;1282;22541;-86
2022/08/28 06:46:52;;;;;;;15.20;13.60;;;;;;;21.39;92.98;97570.61;105713;1282;23977;-87
2022/08/28 06:49:20;;;;;;;18.80;13.20;;;;;;;21.48;92.84;97576.49;105475;1282;22588;-87
2022/08/28 06:51:48;;;;;;;15.10;11.70;;;;;;;21.57;92.26;97578.76;105633;1282;23496;-88
2022/08/28 06:54:16;;;;;;;16.30;13.70;;;;;;;21.64;91.68;97575.14;105462;1283;22712;-85
2022/08/28 06:56:51;;;;;;;17.20;14.20;;;;;;;21.69;91.22;97575.02;105672;1282;23104;-86
2022/08/28 06:59:19;;;;;;;16.90;13.80;;;;;;;21.79;91.58;97575.64;105664;1281;25242;-86
2022/08/28 07:01:48;;;;;;;15.00;13.30;;;;;;;21.88;90.79;97577.83;105658;1281;24155;-87
2022/08/28 07:04:16;;;;;;;14.80;11.90;;;;;;;21.98;90.42;97574.75;105679;1282;24263;-87
2022/08/28 07:06:44;;;;;;;14.70;11.00;;;;;;;22.05;90.15;97570.48;105648;1282;22692;-87
2022/08/28 07:09:15;;;;;;;15.60;12.70;;;;;;;22.10;89.92;97573.27;105447;1282;24219;-87
2022/08/28 07:11:47;;;;;;;18.00;12.20;;;;;;;22.14;88.88;97573.76;105472;1282;24426;-88
2022/08/28 07:14:16;;;;;;;14.70;11.00;;;;;;;22.17;87.90;97580.92;105660;1282;22638;-87
2022/08/28 07:16:44;;;;;;;12.30;10.90;;;;;;;22.22;88.47;97583.71;105685;1282;25321;-89
2022/08/28 07:19:12;;;;;;;14.10;9.90;;;;;;;22.30;87.74;97580.70;105665;1282;25371;-87
2022/08/28 07:21:43;;;;;;;17.80;10.40;;;;;;;22.36;87.85;97580.66;105623;1282;25349;-86
2022/08/28 07:24:13;;;;;;;12.90;10.10;;;;;;;22.44;87.88;97579.36;105600;1282;22551;-87
2022/08/28 07:26:43;;;;;;;12.80;10.80;;;;;;;22.51;86.62;97576.58;105701;1282;22573;-88
2022/08/28 07:29:11;;;;;;;13.20;10.40;;;;;;;22.52;86.23;97573.20;105696;1282;24303;-87
2022/08/28 07:31:45;;;;;;;14.90;9.60;;;;;;;22.55;86.22;97568.19;105458;1282;24441;-86
2022/08/28 07:34:15;;;;;;;12.40;8.90;;;;;;;22.60;84.46;97561.23;105673;1282;25260;-86
2022/08/28 07:36:44;;;;;;;14.30;9.80;;;;;;;22.68;85.19;97560.31;105679;1282;25572;-86
2022/08/28 07:39:14;;;;;;;14.40;9.70;;;;;;;22.81;84.93;97561.30;105519;1283;24100;-86
2022/08/28 07:41:43;;;;;;;13.40;10.20;;;;;;;22.96;84.66;97562.84;105515;1282;23024;-87
2022/08/28 07:47:03;;;;;;;12.50;8.10;;;;;;;23.18;82.65;97564.08;105693;1282;23955;-86
2022/08/28 07:49:33;;;;;;;12.70;10.10;;;;;;;23.21;81.16;97566.68;105736;1282;22562;-89
2022/08/28 07:52:02;;;;;;;12.30;9.40;;;;;;;23.21;80.22;97567.23;105721;1282;23888;-85
2022/08/28 07:54:30;;;;;;;12.10;8.90;;;;;;;23.21;79.43;97569.52;105680;1282;22633;-87
2022/08/28 07:56:58;;;;;;;12.50;8.80;;;;;;;23.25;80.17;97571.64;105721;1282;23482;-87
2022/08/28 07:59:26;;;;;;;13.50;9.80;;;;;;;23.31;79.18;97570.30;105641;1282;24218;-85
2022/08/28 08:02:05;;;;;;;13.80;8.80;;;;;;;23.30;79.45;97569.29;105643;1282;22615;-88
2022/08/28 08:04:33;;;;;;;13.10;8.30;;;;;;;23.32;78.89;97570.63;105637;1282;22598;-87
2022/08/28 08:07:03;;;;;;;14.50;8.70;;;;;;;23.34;78.45;97569.22;105483;1282;24403;-88
2022/08/28 08:09:37;;;;;;;13.30;8.90;;;;;;;23.43;78.88;97570.64;105726;1282;26518;-88
2022/08/28 08:12:06;;;;;;;12.50;8.60;;;;;;;23.47;78.15;97573.40;105593;1282;22566;-87
2022/08/28 08:14:38;;;;;;;10.50;9.00;;;;;;;23.52;78.54;97573.24;105920;1282;23934;-88
2022/08/28 08:17:07;;;;;;;12.70;8.60;;;;;;;23.62;78.06;97573.16;105667;1282;23166;-86
2022/08/28 08:19:36;;;;;;;14.40;8.50;;;;;;;23.70;77.32;97574.43;105671;1282;24260;-87
2022/08/28 08:22:04;;;;;;;16.70;7.70;;;;;;;23.74;75.57;97575.70;105720;1282;25358;-87
2022/08/28 08:24:32;;;;;;;11.00;8.10;;;;;;;23.75;76.48;97578.30;105416;1282;22541;-86
2022/08/28 08:27:01;;;;;;;13.00;8.70;;;;;;;23.88;76.99;97574.05;105410;1282;22653;-88
2022/08/28 08:29:34;;;;;;;11.70;8.20;;;;;;;23.97;73.63;97578.90;105632;1282;22552;-86
2022/08/28 08:32:09;;;;;;;11.70;8.60;;;;;;;23.91;74.05;97583.15;105513;1282;22697;-87
2022/08/28 08:34:40;;;;;;;14.10;8.50;;;;;;;23.96;74.22;97583.70;105657;1282;22556;-86
2022/08/28 08:37:11;;;;;;;16.00;8.30;;;;;;;23.99;72.83;97588.34;105512;1282;22670;-87
2022/08/28 08:39:41;;;;;;;13.30;8.30;;;;;;;23.99;72.20;97587.95;105732;1282;26526;-86
2022/08/28 08:42:31;;;;;;;13.30;8.60;;;;;;;23.99;72.44;97587.40;105483;1282;22625;-86
2022/08/28 08:45:03;;;;;;;9.90;7.90;;;;;;;24.11;73.37;97590.91;105615;1282;22618;-86
2022/08/28 08:47:48;;;;;;;14.00;8.20;;;;;;;24.24;71.59;97594.52;105682;1282;22558;-86
2022/08/28 08:50:31;;;;;;;14.90;8.20;;;;;;;24.21;71.62;97591.05;105740;1282;24128;-86
2022/08/28 08:53:12;;;;;;;12.60;7.90;;;;;;;24.23;72.48;97590.81;105369;1283;22629;-87
2022/08/28 08:55:49;;;;;;;12.60;8.30;;;;;;;24.39;73.09;97590.23;105734;1282;22541;-88
2022/08/28 08:58:30;;;;;;;17.00;8.50;;;;;;;24.56;71.67;97598.86;105563;1282;22961;-87
2022/08/28 09:01:19;;;;;;;12.20;8.40;;;;;;;24.58;71.51;97596.81;105518;1282;23043;-88
2022/08/28 09:04:03;;;;;;;10.70;8.60;;;;;;;24.67;71.89;97592.60;105691;1282;22727;-87
2022/08/28 09:06:45;;;;;;;11.90;8.50;;;;;;;24.75;70.97;97594.54;105529;1282;23994;-87
2022/08/28 09:09:25;;;;;;;12.60;8.40;;;;;;;24.78;71.41;97594.05;105513;1283;25500;-87
2022/08/28 09:11:55;;;;;;;12.40;7.80;;;;;;;24.75;69.90;97598.87;105688;1282;22752;-87
2022/08/28 09:14:56;;;;;;;11.10;7.50;;;;;;;24.61;70.15;97600.88;105578;1282;24277;-88
2022/08/28 09:17:46;;;;;;;11.10;7.50;;;;;;;24.49;70.15;97602.90;105521;1283;22563;-87
2022/08/28 09:20:19;;;;;;;11.00;7.80;;;;;;;24.39;70.22;97608.48;105528;1282;25252;-88
2022/08/28 09:22:59;;;;;;;9.70;8.00;;;;;;;24.34;70.00;97613.38;105541;1282;24202;-87
2022/08/28 09:25:49;;;;;;;14.30;8.40;;;;;;;24.22;69.89;97614.19;105506;1282;22685;-88
2022/08/28 09:28:27;;;;;;;12.20;7.70;;;;;;;24.15;69.89;97618.44;105748;1282;22700;-86
2022/08/28 09:31:06;;;;;;;9.90;6.60;;;;;;;24.12;70.45;97623.33;105722;1282;22552;-87
2022/08/28 09:33:43;;;;;;;10.70;7.60;;;;;;;24.16;70.76;97626.06;105508;1282;22725;-87
2022/08/28 09:36:35;;;;;;;13.60;7.40;;;;;;;24.15;70.60;97627.33;105805;1282;24222;-88
2022/08/28 09:39:21;;;;;;;14.20;6.90;;;;;;;24.16;70.70;97634.63;105797;1282;22585;-87
2022/08/28 09:45:19;;;;;;;14.80;7.50;;;;;;;24.17;70.91;97635.57;105792;1282;22878;-87
2022/08/28 09:47:49;;;;;;;13.90;7.40;;;;;;;24.26;71.00;97632.65;105679;1282;22704;-87
2022/08/28 09:50:23;;;;;;;12.20;7.30;;;;;;;24.38;70.57;97633.34;105701;1282;22545;-87
2022/08/28 09:52:54;;;;;;;11.50;8.20;;;;;;;24.40;70.28;97629.63;104434;1282;1844552;-87
2022/08/28 09:55:29;;;;;;;12.60;7.10;;;;;;;24.47;70.51;97625.33;105678;1282;25392;-87
2022/08/28 09:57:58;;;;;;;18.10;8.60;;;;;;;24.58;70.57;97623.40;105773;1282;25394;-86
2022/08/28 10:00:32;;;;;;;9.80;7.20;;;;;;;24.64;69.99;97621.09;105719;1282;24288;-87
2022/08/28 10:03:16;;;;;;;13.00;7.40;;;;;;;24.70;70.46;97621.48;105711;1282;22682;-87
2022/08/28 10:06:02;;;;;;;11.00;7.80;;;;;;;24.73;69.58;97621.39;105698;1282;22741;-87
2022/08/28 10:08:39;;;;;;;11.30;7.90;;;;;;;24.75;70.15;97623.90;105751;1282;23267;-89
2022/08/28 10:11:22;;;;;;;14.80;8.40;;;;;;;24.80;70.04;97623.23;105801;1282;22541;-87
2022/08/28 10:14:47;;;;;;;11.20;7.70;;;;;;;24.84;69.22;97625.13;105826;1282;22564;-89
2022/08/28 10:17:24;;;;;;;14.20;7.90;;;;;;;24.76;69.50;97621.77;104886;1288;22661;-87
2022/08/28 10:20:09;;;;;;;10.50;7.80;;;;;;;24.74;69.54;97618.55;105857;1288;22562;-86
2022/08/28 10:22:50;;;;;;;13.80;8.40;;;;;;;24.80;69.78;97622.08;105382;1288;23099;-88
2022/08/28 10:25:58;;;;;;;10.90;8.20;;;;;;;24.91;69.49;97619.73;104898;1288;26533;-87
2022/08/28 10:28:55;;;;;;;11.20;8.20;;;;;;;24.90;69.27;97620.85;104336;1297;22603;-89
2022/08/28 10:31:53;;;;;;;11.90;8.30;;;;;;;24.89;68.72;97623.67;104406;1303;25381;-87
2022/08/28 10:34:24;;;;;;;16.50;8.20;;;;;;;24.85;69.16;97619.77;104054;1303;22857;-86
2022/08/28 10:37:16;;;;;;;13.00;8.40;;;;;;;24.93;69.43;97615.25;104515;1303;25982;-86
2022/08/28 10:40:01;;;;;;;13.30;8.80;;;;;;;25.07;69.16;97619.51;104886;1303;25385;-86
2022/08/28 10:42:47;;;;;;;16.10;8.50;;;;;;;25.03;69.17;97617.33;105004;1302;22700;-86
2022/08/28 10:45:20;;;;;;;11.70;9.70;;;;;;;24.91;69.27;97619.81;105645;1303;22592;-86
2022/08/28 10:48:52;;;;;;;16.30;11.00;;;;;;;24.96;69.62;97615.47;104672;1302;22584;-87
2022/08/28 10:51:53;;;;;;;13.20;10.50;;;;;;;25.03;69.22;97615.66;103307;1308;23123;-86
2022/08/28 10:54:49;;;;;;;13.60;10.70;;;;;;;25.07;69.49;97614.38;103378;1306;24717;-87
2022/08/28 10:57:35;;;;;;;14.30;10.60;;;;;;;25.22;69.63;97615.27;103384;1306;22732;-87
2022/08/28 11:00:14;;;;;;;15.90;11.20;;;;;;;25.38;69.60;97611.71;103189;1306;24273;-86
2022/08/28 11:02:50;;;;;;;12.50;11.20;;;;;;;25.46;69.41;97614.19;103238;1306;22606;-87
2022/08/28 11:05:22;;;;;;;14.20;12.60;;;;;;;25.50;69.47;97612.52;103717;1300;22564;-88
2022/08/28 11:08:26;;;;;;;12.50;11.10;;;;;;;25.49;69.04;97611.48;103820;1300;23064;-87
2022/08/28 11:10:57;;;;;;;16.70;12.30;;;;;;;25.45;69.18;97611.27;104274;1294;22624;-87
2022/08/28 11:13:47;;;;;;;13.70;11.70;;;;;;;25.38;69.31;97607.94;104184;1294;27898;-87
2022/08/28 11:16:44;;;;;;;13.20;12.00;;;;;;;25.36;69.45;97609.13;104205;1293;22577;-87
2022/08/28 11:19:31;;;;;;;17.40;11.50;;;;;;;25.35;69.59;97607.80;104316;1294;25310;-87
2022/08/28 11:22:09;;;;;;;14.30;11.80;;;;;;;25.37;69.82;97605.35;104347;1288;24562;-87
2022/08/28 11:24:38;;;;;;;14.90;12.00;;;;;;;25.41;69.77;97607.29;104839;1288;25321;-86
2022/08/28 11:27:34;;;;;;;15.20;11.30;;;;;;;25.43;69.99;97602.23;104951;1288;26626;-88
2022/08/28 11:30:08;;;;;;;14.30;12.60;;;;;;;25.53;70.11;97602.14;105109;1287;24117;-90
2022/08/28 11:32:56;;;;;;;;;;;;;;;25.64;69.67;97603.17;105536;1282;22528;-90
2022/08/28 11:35:35;;;;;;;16.60;12.20;;;;;;;25.65;69.63;97603.09;105468;1284;24204;-88
2022/08/28 11:38:04;;;;;;;15.50;13.80;;;;;;;25.69;69.85;97603.45;105421;1284;25328;-89
2022/08/28 11:40:32;;;;;;;13.90;12.50;;;;;;;25.73;69.57;97600.90;105453;1284;22624;-87
2022/08/28 11:43:15;;;;;;;16.10;13.40;;;;;;;25.73;69.94;97598.21;105413;1284;22573;-86
2022/08/28 11:45:49;;;;;;;14.20;12.50;;;;;;;25.75;69.27;97595.60;105421;1283;25273;-86
2022/08/28 11:48:32;;;;;;;14.90;12.80;;;;;;;25.69;69.35;97594.30;105361;1285;25552;-86
2022/08/28 11:51:26;;;;;;;13.20;11.30;;;;;;;25.69;69.71;97589.42;105489;1284;25291;-85
2022/08/28 11:54:33;;;;;;;17.10;13.70;;;;;;;25.73;70.01;97586.48;105451;1283;22559;-86
2022/08/28 11:57:04;;;;;;;14.10;12.70;;;;;;;25.70;69.76;97588.39;105339;1285;22597;-87